createdAt,value
2022-08-25T00:02:11.868Z,46.64
2022-08-25T00:07:13.638Z,46.80
2022-08-25T00:12:20.523Z,47.00
2022-08-25T00:17:22.208Z,46.92
2022-08-25T00:22:23.998Z,47.17
2022-08-25T00:27:26.070Z,47.42
2022-08-25T00:32:28.009Z,47.12
2022-08-25T00:37:29.664Z,47.47
2022-08-25T00:42:31.738Z,47.57
2022-08-25T00:47:33.364Z,47.62
2022-08-25T00:52:41.539Z,47.77
2022-08-25T00:57:56.844Z,47.85
2022-08-25T01:02:59.459Z,48.04
2022-08-25T01:08:06.517Z,48.08
2022-08-25T01:13:26.401Z,47.94
2022-08-25T01:18:28.716Z,48.38
2022-08-25T01:23:30.334Z,48.16
2022-08-25T01:28:32.493Z,48.54
2022-08-25T01:33:34.488Z,48.63
2022-08-25T01:38:36.099Z,48.50
2022-08-25T01:43:38.959Z,48.62
2022-08-25T01:48:40.555Z,48.83
2022-08-25T01:53:44.166Z,49.02
2022-08-25T01:58:49.076Z,48.91
2022-08-25T02:03:53.823Z,48.85
2022-08-25T02:08:58.531Z,49.03
2022-08-25T02:14:01.099Z,49.08
2022-08-25T02:19:05.013Z,49.04
2022-08-25T02:24:07.782Z,49.43
2022-08-25T02:29:10.379Z,49.35
2022-08-25T02:34:12.024Z,49.15
2022-08-25T02:39:13.828Z,49.48
2022-08-25T02:44:15.442Z,49.57
2022-08-25T02:49:17.126Z,49.51
2022-08-25T02:54:18.733Z,49.76
2022-08-25T02:59:21.105Z,49.55
2022-08-25T03:04:22.850Z,49.72
2022-08-25T03:09:24.684Z,49.70
2022-08-25T03:14:26.302Z,49.99
2022-08-25T03:19:27.936Z,49.88
2022-08-25T03:24:29.611Z,50.36
2022-08-25T03:29:33.063Z,50.23
2022-08-25T03:34:34.765Z,50.04
2022-08-25T03:39:36.463Z,50.35
2022-08-25T03:44:38.107Z,50.43
2022-08-25T03:49:39.708Z,50.67
2022-08-25T03:54:41.691Z,50.62
2022-08-25T03:59:43.587Z,50.69
2022-08-25T04:04:45.310Z,50.82
2022-08-25T04:09:47.447Z,50.49
2022-08-25T04:14:49.532Z,50.34
2022-08-25T04:19:51.661Z,50.47
2022-08-25T04:24:53.315Z,50.90
2022-08-25T04:29:56.721Z,50.81
2022-08-25T04:34:58.401Z,50.65
2022-08-25T04:40:00.533Z,50.76
2022-08-25T04:45:04.053Z,51.26
2022-08-25T04:50:07.460Z,51.42
2022-08-25T04:55:09.295Z,51.55
2022-08-25T05:00:11.647Z,51.33
2022-08-25T05:05:13.309Z,51.54
2022-08-25T05:10:14.924Z,51.75
2022-08-25T05:15:39.853Z,51.75
2022-08-25T05:20:41.618Z,51.91
2022-08-25T05:25:44.519Z,52.13
2022-08-25T05:30:49.603Z,52.34
2022-08-25T05:35:51.891Z,52.25
2022-08-25T05:41:02.222Z,52.53
2022-08-25T05:46:04.242Z,52.29
2022-08-25T05:51:08.282Z,52.29
2022-08-25T05:56:10.751Z,52.62
2022-08-25T06:01:39.630Z,52.71
2022-08-25T06:06:41.492Z,52.68
2022-08-25T06:11:43.358Z,52.57
2022-08-25T06:16:44.953Z,52.58
2022-08-25T06:21:46.667Z,52.44
2022-08-25T06:26:48.311Z,52.82
2022-08-25T06:31:50.476Z,53.02
2022-08-25T06:36:52.741Z,52.90
2022-08-25T06:41:56.622Z,52.85
2022-08-25T06:47:00.678Z,52.90
2022-08-25T06:52:02.797Z,53.09
2022-08-25T06:57:06.210Z,53.01
2022-08-25T07:02:08.739Z,52.72
2022-08-25T07:07:10.433Z,52.87
2022-08-25T07:12:12.019Z,52.91
2022-08-25T07:17:13.954Z,52.36
2022-08-25T07:22:16.110Z,52.54
2022-08-25T07:27:17.926Z,52.61
2022-08-25T07:32:19.615Z,52.64
2022-08-25T07:42:45.043Z,52.31
2022-08-25T07:47:46.764Z,52.15
2022-08-25T07:52:52.150Z,52.15
2022-08-25T07:57:57.524Z,51.96
2022-08-25T08:03:01.230Z,52.02
2022-08-25T08:08:05.848Z,51.78
2022-08-25T08:13:08.931Z,51.97
2022-08-25T08:18:11.799Z,51.71
2022-08-25T08:23:14.111Z,51.90
2022-08-25T08:28:15.710Z,51.45
2022-08-25T08:33:17.375Z,51.34
2022-08-25T08:38:22.058Z,51.39
2022-08-25T08:43:33.208Z,50.64
2022-08-25T08:48:46.734Z,50.43
2022-08-25T08:53:59.919Z,50.03
2022-08-25T08:59:06.686Z,50.01
2022-08-25T09:04:17.284Z,49.66
2022-08-25T09:09:27.360Z,49.67
2022-08-25T09:14:55.869Z,49.29
2022-08-25T09:20:00.500Z,49.10
2022-08-25T09:25:10.552Z,49.03
2022-08-25T09:30:17.540Z,48.54
2022-08-25T09:35:24.232Z,48.47
2022-08-25T09:40:30.100Z,48.06
2022-08-25T09:45:42.453Z,47.48
2022-08-25T09:50:46.818Z,47.68
2022-08-25T09:55:59.978Z,47.22
2022-08-25T10:01:14.630Z,46.96
2022-08-25T10:06:16.337Z,46.08
2022-08-25T10:11:33.654Z,46.29
2022-08-25T10:16:36.185Z,45.21
2022-08-25T10:21:41.513Z,45.24
2022-08-25T10:26:51.325Z,45.03
2022-08-25T10:31:58.254Z,44.83
2022-08-25T10:37:21.663Z,43.97
2022-08-25T10:42:57.731Z,43.95
2022-08-25T10:48:24.447Z,43.27
2022-08-25T10:53:56.255Z,43.03
2022-08-25T10:59:35.588Z,42.48
2022-08-25T11:04:49.198Z,42.28
2022-08-25T11:09:55.303Z,41.46
2022-08-25T11:15:09.597Z,41.90
2022-08-25T11:20:19.941Z,41.47
2022-08-25T11:25:35.163Z,41.51
2022-08-25T11:30:38.323Z,41.00
2022-08-25T11:35:47.250Z,41.13
2022-08-25T11:41:14.564Z,41.00
2022-08-25T11:46:53.937Z,40.93
2022-08-25T11:51:55.858Z,40.63
2022-08-25T11:57:17.138Z,40.85
2022-08-25T12:02:39.198Z,40.37
2022-08-25T12:07:46.818Z,40.09
2022-08-25T12:12:48.570Z,39.66
2022-08-25T12:18:22.017Z,39.53
2022-08-25T12:23:38.084Z,39.30
2022-08-25T12:29:11.619Z,39.53
2022-08-25T12:34:32.908Z,38.84
2022-08-25T12:39:43.222Z,38.88
2022-08-25T12:44:48.005Z,38.18
2022-08-25T12:49:52.259Z,38.48
2022-08-25T12:54:59.528Z,37.86
2022-08-25T13:00:12.994Z,36.93
2022-08-25T13:05:40.071Z,36.94
2022-08-25T13:10:50.814Z,36.71
2022-08-25T13:16:08.987Z,36.48
2022-08-25T13:21:31.836Z,36.74
2022-08-25T13:26:48.041Z,35.79
2022-08-25T13:32:02.398Z,35.35
2022-08-25T13:37:31.308Z,35.12
2022-08-25T13:42:33.209Z,34.52
2022-08-25T13:47:43.716Z,34.70
2022-08-25T13:52:54.340Z,34.38
2022-08-25T13:57:59.109Z,34.74
2022-08-25T14:03:03.422Z,34.44
2022-08-25T14:08:32.645Z,33.99
2022-08-25T14:13:36.451Z,33.49
2022-08-25T14:18:54.611Z,33.74
2022-08-25T14:24:00.810Z,33.83
2022-08-25T14:29:02.793Z,33.45
2022-08-25T14:34:15.582Z,33.26
2022-08-25T14:39:18.584Z,33.18
2022-08-25T14:44:20.995Z,32.80
2022-08-25T14:49:32.743Z,32.66
2022-08-25T14:54:37.496Z,32.75
2022-08-25T14:59:43.201Z,32.21
2022-08-25T15:04:53.656Z,32.36
2022-08-25T15:09:55.300Z,32.07
2022-08-25T15:14:58.269Z,32.19
2022-08-25T15:19:59.967Z,31.89
2022-08-25T15:25:01.949Z,32.16
2022-08-25T15:30:04.694Z,32.73
2022-08-25T15:35:06.978Z,33.25
2022-08-25T15:40:09.632Z,33.13
2022-08-25T15:45:11.830Z,33.31
2022-08-25T15:50:17.424Z,33.49
2022-08-25T15:55:19.995Z,33.88
2022-08-25T16:00:22.101Z,33.76
2022-08-25T16:05:25.985Z,34.06
2022-08-25T16:10:28.110Z,33.94
2022-08-25T16:15:29.734Z,34.18
2022-08-25T16:20:34.628Z,34.08
2022-08-25T16:25:41.695Z,34.88
2022-08-25T16:30:52.697Z,35.06
2022-08-25T16:36:14.614Z,34.83
2022-08-25T16:41:20.113Z,34.94
2022-08-25T16:46:23.786Z,35.66
2022-08-25T16:51:29.654Z,35.34
2022-08-25T16:56:37.067Z,35.54
2022-08-25T17:01:40.931Z,35.92
2022-08-25T17:06:51.876Z,36.05
2022-08-25T17:11:56.848Z,36.36
2022-08-25T17:16:58.625Z,36.49
2022-08-25T17:22:00.519Z,36.23
2022-08-25T17:27:02.231Z,36.20
2022-08-25T17:32:04.693Z,36.44
2022-08-25T17:37:06.849Z,36.64
2022-08-25T17:42:09.006Z,36.89
2022-08-25T17:47:11.258Z,37.23
2022-08-25T17:52:13.224Z,36.92
2022-08-25T17:57:16.196Z,36.93
2022-08-25T18:02:17.872Z,37.23
2022-08-25T18:07:19.543Z,37.25
2022-08-25T18:12:21.396Z,36.94
2022-08-25T18:17:29.129Z,37.39
2022-08-25T18:22:32.307Z,37.41
2022-08-25T18:27:35.098Z,37.45
2022-08-25T18:32:36.803Z,37.75
2022-08-25T18:37:57.176Z,37.77
2022-08-25T18:43:02.762Z,38.51
2022-08-25T18:48:04.983Z,38.90
2022-08-25T18:53:09.460Z,39.08
2022-08-25T18:58:11.771Z,39.32
2022-08-25T19:03:16.031Z,39.45
2022-08-25T19:08:19.119Z,39.38
2022-08-25T19:13:23.533Z,39.63
2022-08-25T19:18:25.947Z,39.88
2022-08-25T19:23:32.567Z,40.07
2022-08-25T19:28:35.788Z,40.13
2022-08-25T19:33:44.755Z,40.35
2022-08-25T19:38:47.081Z,40.65
2022-08-25T19:43:56.459Z,40.79
2022-08-25T19:49:01.495Z,40.85
2022-08-25T19:54:09.209Z,40.79
2022-08-25T19:59:11.976Z,40.85
2022-08-25T20:04:13.819Z,41.22
2022-08-25T20:09:20.786Z,41.06
2022-08-25T20:14:37.866Z,41.44
2022-08-25T20:19:39.887Z,41.46
2022-08-25T20:24:50.942Z,41.55
2022-08-25T20:29:53.549Z,41.35
2022-08-25T20:34:55.915Z,41.71
2022-08-25T20:39:58.143Z,41.45
2022-08-25T20:45:00.344Z,41.88
2022-08-25T20:50:06.730Z,41.83
2022-08-25T20:55:09.846Z,41.81
2022-08-25T21:00:15.843Z,41.86
2022-08-25T21:05:17.653Z,42.27
2022-08-25T21:10:19.417Z,42.06
2022-08-25T21:15:21.134Z,41.92
2022-08-25T21:20:24.101Z,42.53
2022-08-25T21:25:25.786Z,42.61
2022-08-25T21:30:28.537Z,42.57
2022-08-25T21:35:30.774Z,42.94
2022-08-25T21:40:38.731Z,42.55
2022-08-25T21:45:45.753Z,42.81
2022-08-25T21:50:48.538Z,42.82
2022-08-25T21:55:50.459Z,42.82
2022-08-25T22:00:52.131Z,43.34
2022-08-25T22:05:55.310Z,42.96
2022-08-25T22:10:57.597Z,43.25
2022-08-25T22:15:59.338Z,43.47
2022-08-25T22:21:07.287Z,43.25
2022-08-25T22:26:11.174Z,43.20
2022-08-25T22:31:14.434Z,43.58
2022-08-25T22:36:28.659Z,43.48
2022-08-25T22:41:31.573Z,43.59
2022-08-25T22:46:34.888Z,44.05
2022-08-25T22:51:37.432Z,43.80
2022-08-25T22:56:39.788Z,43.89
2022-08-25T23:01:43.483Z,43.95
2022-08-25T23:06:45.140Z,44.13
2022-08-25T23:11:51.197Z,43.99
2022-08-25T23:16:53.459Z,44.50
2022-08-25T23:22:10.550Z,44.44
2022-08-25T23:27:15.721Z,44.68
2022-08-25T23:32:18.537Z,44.63
2022-08-25T23:37:20.149Z,44.58
2022-08-25T23:42:21.844Z,44.62
2022-08-25T23:47:23.658Z,45.12
2022-08-25T23:52:26.011Z,44.61
2022-08-25T23:57:27.611Z,44.73
